Terminal Aerodrome Forecast
Issued by NWS Lake Charles, LA

Home | Current Version | Previous Version | Text Only | Print | Product List | Glossary On
Versions: 1 2 3 4 5 6 7 8 9 10 11 12 13 14 15
000
FTUS44 KLCH 050520
TAFBPT
TAF
KBPT 050520Z 0506/0606 13009KT P6SM VCSH BKN045
     FM051000 13006KT P6SM VCSH BKN025
     FM051500 12012G21KT P6SM VCTS BKN025CB PROB30 0515/0521 4SM
      TSRA OVC025CB
     FM060100 13006KT P6SM FEW030 SCT250=

USA.gov is the U.S. government's official web portal to all federal, state and local government web resources and services.